sensor_id;sensor_type;location;lat;lon;timestamp;temperature;humidity
51613;DHT22;37694;51.748;14.326;2022-09-09T00:04:30;25.40;52.70
51613;DHT22;37694;51.748;14.326;2022-09-09T00:09:48;25.30;52.80
51613;DHT22;37694;51.748;14.326;2022-09-09T00:15:14;25.30;52.70
51613;DHT22;37694;51.748;14.326;2022-09-09T00:17:51;25.30;52.40
51613;DHT22;37694;51.748;14.326;2022-09-09T00:20:48;25.30;52.70
51613;DHT22;37694;51.748;14.326;2022-09-09T00:23:28;25.40;52.20
51613;DHT22;37694;51.748;14.326;2022-09-09T00:28:27;25.40;52.40
51613;DHT22;37694;51.748;14.326;2022-09-09T00:33:53;25.40;52.40
51613;DHT22;37694;51.748;14.326;2022-09-09T00:36:22;25.30;52.30
51613;DHT22;37694;51.748;14.326;2022-09-09T00:38:56;25.30;52.10
51613;DHT22;37694;51.748;14.326;2022-09-09T00:41:38;25.40;52.40
51613;DHT22;37694;51.748;14.326;2022-09-09T00:57:38;25.30;52.20
51613;DHT22;37694;51.748;14.326;2022-09-09T01:00:29;25.30;52.50
51613;DHT22;37694;51.748;14.326;2022-09-09T01:03:10;25.30;52.30
51613;DHT22;37694;51.748;14.326;2022-09-09T01:05:45;25.30;52.30
51613;DHT22;37694;51.748;14.326;2022-09-09T01:08:28;25.30;52.20
51613;DHT22;37694;51.748;14.326;2022-09-09T01:10:59;25.30;52.20
51613;DHT22;37694;51.748;14.326;2022-09-09T01:13:33;25.30;52.40
51613;DHT22;37694;51.748;14.326;2022-09-09T01:16:03;25.30;52.40
51613;DHT22;37694;51.748;14.326;2022-09-09T01:18:53;25.30;52.80
51613;DHT22;37694;51.748;14.326;2022-09-09T01:21:41;25.30;52.90
51613;DHT22;37694;51.748;14.326;2022-09-09T01:26:49;25.30;53.00
51613;DHT22;37694;51.748;14.326;2022-09-09T01:29:17;25.30;53.00
51613;DHT22;37694;51.748;14.326;2022-09-09T01:31:58;25.30;53.10
51613;DHT22;37694;51.748;14.326;2022-09-09T01:34:30;25.30;52.80
51613;DHT22;37694;51.748;14.326;2022-09-09T01:37:08;25.30;52.40
51613;DHT22;37694;51.748;14.326;2022-09-09T01:39:38;25.30;52.30
51613;DHT22;37694;51.748;14.326;2022-09-09T01:42:06;25.30;52.50
51613;DHT22;37694;51.748;14.326;2022-09-09T01:44:34;25.30;52.50
51613;DHT22;37694;51.748;14.326;2022-09-09T01:46:59;25.30;52.40
51613;DHT22;37694;51.748;14.326;2022-09-09T01:49:25;25.30;52.50
51613;DHT22;37694;51.748;14.326;2022-09-09T01:51:55;25.30;52.40
51613;DHT22;37694;51.748;14.326;2022-09-09T01:54:24;25.30;52.40
51613;DHT22;37694;51.748;14.326;2022-09-09T02:02:32;25.30;52.60
51613;DHT22;37694;51.748;14.326;2022-09-09T02:07:43;25.30;52.60
51613;DHT22;37694;51.748;14.326;2022-09-09T02:10:19;25.20;52.90
51613;DHT22;37694;51.748;14.326;2022-09-09T02:12:59;25.20;52.60
51613;DHT22;37694;51.748;14.326;2022-09-09T02:15:39;25.20;52.80
51613;DHT22;37694;51.748;14.326;2022-09-09T02:18:09;25.20;52.80
51613;DHT22;37694;51.748;14.326;2022-09-09T02:20:38;25.20;52.80
51613;DHT22;37694;51.748;14.326;2022-09-09T02:23:05;25.20;52.60
51613;DHT22;37694;51.748;14.326;2022-09-09T02:25:33;25.20;52.60
51613;DHT22;37694;51.748;14.326;2022-09-09T02:28:03;25.20;53.00
51613;DHT22;37694;51.748;14.326;2022-09-09T02:30:30;25.20;52.90
51613;DHT22;37694;51.748;14.326;2022-09-09T02:32:58;25.20;52.80
51613;DHT22;37694;51.748;14.326;2022-09-09T02:35:28;25.20;52.80
51613;DHT22;37694;51.748;14.326;2022-09-09T02:38:00;25.20;52.90
51613;DHT22;37694;51.748;14.326;2022-09-09T02:40:27;25.20;53.10
51613;DHT22;37694;51.748;14.326;2022-09-09T02:42:54;25.20;52.80
51613;DHT22;37694;51.748;14.326;2022-09-09T02:45:24;25.20;53.20
51613;DHT22;37694;51.748;14.326;2022-09-09T02:48:09;25.20;53.10
51613;DHT22;37694;51.748;14.326;2022-09-09T02:56:32;25.20;53.20
51613;DHT22;37694;51.748;14.326;2022-09-09T02:59:03;25.20;52.80
51613;DHT22;37694;51.748;14.326;2022-09-09T03:01:29;25.20;52.70
51613;DHT22;37694;51.748;14.326;2022-09-09T03:03:55;25.20;52.60
51613;DHT22;37694;51.748;14.326;2022-09-09T03:06:20;25.20;52.80
51613;DHT22;37694;51.748;14.326;2022-09-09T03:08:47;25.20;52.60
51613;DHT22;37694;51.748;14.326;2022-09-09T03:11:16;25.20;52.80
51613;DHT22;37694;51.748;14.326;2022-09-09T03:13:42;25.20;53.00
51613;DHT22;37694;51.748;14.326;2022-09-09T03:16:07;25.20;53.00
51613;DHT22;37694;51.748;14.326;2022-09-09T03:18:33;25.20;53.00
51613;DHT22;37694;51.748;14.326;2022-09-09T03:21:00;25.20;53.10
51613;DHT22;37694;51.748;14.326;2022-09-09T03:23:26;25.20;53.10
51613;DHT22;37694;51.748;14.326;2022-09-09T03:25:51;25.20;52.90
51613;DHT22;37694;51.748;14.326;2022-09-09T03:28:18;25.20;53.10
51613;DHT22;37694;51.748;14.326;2022-09-09T03:30:44;25.20;53.00
51613;DHT22;37694;51.748;14.326;2022-09-09T03:33:09;25.20;53.00
51613;DHT22;37694;51.748;14.326;2022-09-09T03:35:35;25.20;53.00
51613;DHT22;37694;51.748;14.326;2022-09-09T03:38:01;25.20;53.20
51613;DHT22;37694;51.748;14.326;2022-09-09T03:40:27;25.20;53.30
51613;DHT22;37694;51.748;14.326;2022-09-09T03:42:52;25.20;53.30
51613;DHT22;37694;51.748;14.326;2022-09-09T03:45:18;25.20;53.20
51613;DHT22;37694;51.748;14.326;2022-09-09T03:47:43;25.20;53.30
51613;DHT22;37694;51.748;14.326;2022-09-09T03:50:09;25.20;53.30
51613;DHT22;37694;51.748;14.326;2022-09-09T03:52:37;25.20;53.40
51613;DHT22;37694;51.748;14.326;2022-09-09T03:55:03;25.20;53.30
51613;DHT22;37694;51.748;14.326;2022-09-09T03:57:29;25.20;53.30
51613;DHT22;37694;51.748;14.326;2022-09-09T03:59:55;25.20;53.30
51613;DHT22;37694;51.748;14.326;2022-09-09T04:02:21;25.20;53.10
51613;DHT22;37694;51.748;14.326;2022-09-09T04:04:47;25.20;53.10
51613;DHT22;37694;51.748;14.326;2022-09-09T04:07:12;25.20;52.90
51613;DHT22;37694;51.748;14.326;2022-09-09T04:09:38;25.20;52.80
51613;DHT22;37694;51.748;14.326;2022-09-09T04:12:04;25.20;52.70
51613;DHT22;37694;51.748;14.326;2022-09-09T04:14:30;25.20;52.60
51613;DHT22;37694;51.748;14.326;2022-09-09T04:16:55;25.20;52.60
51613;DHT22;37694;51.748;14.326;2022-09-09T04:19:23;25.10;52.70
51613;DHT22;37694;51.748;14.326;2022-09-09T04:21:49;25.10;52.60
51613;DHT22;37694;51.748;14.326;2022-09-09T04:24:17;25.10;52.80
51613;DHT22;37694;51.748;14.326;2022-09-09T04:26:43;25.10;52.50
51613;DHT22;37694;51.748;14.326;2022-09-09T04:29:08;25.10;52.50
51613;DHT22;37694;51.748;14.326;2022-09-09T04:31:34;25.10;52.60
51613;DHT22;37694;51.748;14.326;2022-09-09T04:34:00;25.10;52.70
51613;DHT22;37694;51.748;14.326;2022-09-09T04:36:31;25.10;52.70
51613;DHT22;37694;51.748;14.326;2022-09-09T04:38:57;25.10;52.80
51613;DHT22;37694;51.748;14.326;2022-09-09T04:41:22;25.10;52.70
51613;DHT22;37694;51.748;14.326;2022-09-09T04:43:49;25.10;52.80
51613;DHT22;37694;51.748;14.326;2022-09-09T04:46:14;25.10;52.80
51613;DHT22;37694;51.748;14.326;2022-09-09T04:48:42;25.10;52.90
51613;DHT22;37694;51.748;14.326;2022-09-09T04:51:12;25.10;53.80
51613;DHT22;37694;51.748;14.326;2022-09-09T04:53:38;25.10;52.80
51613;DHT22;37694;51.748;14.326;2022-09-09T04:56:08;25.10;53.10
51613;DHT22;37694;51.748;14.326;2022-09-09T04:58:35;25.10;52.90
51613;DHT22;37694;51.748;14.326;2022-09-09T05:01:06;25.10;53.10
51613;DHT22;37694;51.748;14.326;2022-09-09T05:03:32;25.10;52.90
51613;DHT22;37694;51.748;14.326;2022-09-09T05:06:10;25.10;53.80
51613;DHT22;37694;51.748;14.326;2022-09-09T05:08:38;25.10;52.90
51613;DHT22;37694;51.748;14.326;2022-09-09T05:11:17;25.10;53.00
51613;DHT22;37694;51.748;14.326;2022-09-09T05:13:43;25.20;53.10
51613;DHT22;37694;51.748;14.326;2022-09-09T05:16:09;25.10;53.10
51613;DHT22;37694;51.748;14.326;2022-09-09T05:18:40;25.10;53.40
51613;DHT22;37694;51.748;14.326;2022-09-09T05:21:07;25.10;54.10
51613;DHT22;37694;51.748;14.326;2022-09-09T05:23:33;25.20;53.80
51613;DHT22;37694;51.748;14.326;2022-09-09T05:26:00;25.20;54.10
51613;DHT22;37694;51.748;14.326;2022-09-09T05:28:27;25.20;54.00
51613;DHT22;37694;51.748;14.326;2022-09-09T05:31:00;25.20;54.10
51613;DHT22;37694;51.748;14.326;2022-09-09T05:33:27;25.20;54.70
51613;DHT22;37694;51.748;14.326;2022-09-09T05:36:04;25.20;54.60
51613;DHT22;37694;51.748;14.326;2022-09-09T05:38:31;25.20;54.90
51613;DHT22;37694;51.748;14.326;2022-09-09T05:40:58;25.20;54.60
51613;DHT22;37694;51.748;14.326;2022-09-09T05:43:24;25.30;54.80
51613;DHT22;37694;51.748;14.326;2022-09-09T05:48:31;25.30;55.30
51613;DHT22;37694;51.748;14.326;2022-09-09T05:50:58;25.30;54.60
51613;DHT22;37694;51.748;14.326;2022-09-09T05:53:24;25.30;54.60
51613;DHT22;37694;51.748;14.326;2022-09-09T05:55:49;25.30;54.60
51613;DHT22;37694;51.748;14.326;2022-09-09T05:58:15;25.30;54.70
51613;DHT22;37694;51.748;14.326;2022-09-09T06:00:42;25.30;54.40
51613;DHT22;37694;51.748;14.326;2022-09-09T06:03:11;25.40;54.60
51613;DHT22;37694;51.748;14.326;2022-09-09T06:05:36;25.30;55.10
51613;DHT22;37694;51.748;14.326;2022-09-09T06:08:03;25.30;54.50
51613;DHT22;37694;51.748;14.326;2022-09-09T06:10:28;25.30;54.10
51613;DHT22;37694;51.748;14.326;2022-09-09T06:12:54;25.30;54.30
51613;DHT22;37694;51.748;14.326;2022-09-09T06:15:20;25.30;54.20
51613;DHT22;37694;51.748;14.326;2022-09-09T06:17:46;25.30;54.20
51613;DHT22;37694;51.748;14.326;2022-09-09T06:20:12;25.30;53.90
51613;DHT22;37694;51.748;14.326;2022-09-09T06:22:40;25.30;53.70
51613;DHT22;37694;51.748;14.326;2022-09-09T06:25:08;25.30;53.60
51613;DHT22;37694;51.748;14.326;2022-09-09T06:27:33;25.40;53.60
51613;DHT22;37694;51.748;14.326;2022-09-09T06:29:59;25.40;53.60
51613;DHT22;37694;51.748;14.326;2022-09-09T06:32:25;25.40;53.70
51613;DHT22;37694;51.748;14.326;2022-09-09T06:34:52;25.40;53.40
51613;DHT22;37694;51.748;14.326;2022-09-09T06:37:17;25.40;53.50
51613;DHT22;37694;51.748;14.326;2022-09-09T06:39:43;25.40;53.40
51613;DHT22;37694;51.748;14.326;2022-09-09T06:42:09;25.30;54.30
51613;DHT22;37694;51.748;14.326;2022-09-09T06:44:34;25.40;54.50
51613;DHT22;37694;51.748;14.326;2022-09-09T06:47:00;25.40;53.40
51613;DHT22;37694;51.748;14.326;2022-09-09T06:49:25;25.40;53.60
51613;DHT22;37694;51.748;14.326;2022-09-09T06:51:51;25.40;53.40
51613;DHT22;37694;51.748;14.326;2022-09-09T06:54:17;25.40;53.50
51613;DHT22;37694;51.748;14.326;2022-09-09T06:56:43;25.40;53.40
51613;DHT22;37694;51.748;14.326;2022-09-09T06:59:11;25.40;53.50
51613;DHT22;37694;51.748;14.326;2022-09-09T07:01:42;25.40;53.60
51613;DHT22;37694;51.748;14.326;2022-09-09T07:04:09;25.40;53.40
51613;DHT22;37694;51.748;14.326;2022-09-09T07:06:38;25.40;53.50
51613;DHT22;37694;51.748;14.326;2022-09-09T07:09:06;25.40;53.30
51613;DHT22;37694;51.748;14.326;2022-09-09T07:11:40;25.40;53.40
51613;DHT22;37694;51.748;14.326;2022-09-09T07:14:07;25.40;53.40
51613;DHT22;37694;51.748;14.326;2022-09-09T07:16:33;25.40;53.30
51613;DHT22;37694;51.748;14.326;2022-09-09T07:19:02;25.40;53.30
51613;DHT22;37694;51.748;14.326;2022-09-09T07:21:29;25.40;53.40
51613;DHT22;37694;51.748;14.326;2022-09-09T07:23:56;25.40;53.30
51613;DHT22;37694;51.748;14.326;2022-09-09T07:26:24;25.40;53.30
51613;DHT22;37694;51.748;14.326;2022-09-09T07:28:49;25.40;53.30
51613;DHT22;37694;51.748;14.326;2022-09-09T07:31:17;25.40;53.10
51613;DHT22;37694;51.748;14.326;2022-09-09T07:33:44;25.50;53.10
51613;DHT22;37694;51.748;14.326;2022-09-09T07:36:15;25.50;53.20
51613;DHT22;37694;51.748;14.326;2022-09-09T07:38:45;25.50;53.80
51613;DHT22;37694;51.748;14.326;2022-09-09T07:41:20;25.50;53.00
51613;DHT22;37694;51.748;14.326;2022-09-09T07:43:47;25.50;53.00
51613;DHT22;37694;51.748;14.326;2022-09-09T07:46:14;25.50;53.00
51613;DHT22;37694;51.748;14.326;2022-09-09T07:48:48;25.50;53.00
51613;DHT22;37694;51.748;14.326;2022-09-09T07:51:19;25.50;52.80
51613;DHT22;37694;51.748;14.326;2022-09-09T07:53:47;25.60;52.90
51613;DHT22;37694;51.748;14.326;2022-09-09T07:56:16;25.50;52.90
51613;DHT22;37694;51.748;14.326;2022-09-09T07:58:45;25.60;52.80
51613;DHT22;37694;51.748;14.326;2022-09-09T08:01:19;25.60;52.80
51613;DHT22;37694;51.748;14.326;2022-09-09T08:03:46;25.60;52.60
51613;DHT22;37694;51.748;14.326;2022-09-09T08:06:12;25.60;52.70
51613;DHT22;37694;51.748;14.326;2022-09-09T08:08:39;25.60;52.80
51613;DHT22;37694;51.748;14.326;2022-09-09T08:11:13;25.60;52.70
51613;DHT22;37694;51.748;14.326;2022-09-09T08:13:41;25.60;52.40
51613;DHT22;37694;51.748;14.326;2022-09-09T08:16:13;25.60;52.60
51613;DHT22;37694;51.748;14.326;2022-09-09T08:18:40;25.60;52.60
51613;DHT22;37694;51.748;14.326;2022-09-09T08:21:17;25.70;52.70
51613;DHT22;37694;51.748;14.326;2022-09-09T08:23:45;25.70;52.40
51613;DHT22;37694;51.748;14.326;2022-09-09T08:26:14;25.70;52.70
51613;DHT22;37694;51.748;14.326;2022-09-09T08:28:41;25.70;52.60
51613;DHT22;37694;51.748;14.326;2022-09-09T08:31:16;25.70;52.60
51613;DHT22;37694;51.748;14.326;2022-09-09T08:33:43;25.70;52.40
51613;DHT22;37694;51.748;14.326;2022-09-09T08:36:13;25.70;52.40
51613;DHT22;37694;51.748;14.326;2022-09-09T08:38:41;25.70;52.50
51613;DHT22;37694;51.748;14.326;2022-09-09T08:50:00;25.80;52.20
51613;DHT22;37694;51.748;14.326;2022-09-09T08:58:15;25.80;52.20
51613;DHT22;37694;51.748;14.326;2022-09-09T09:09:23;25.90;52.00
51613;DHT22;37694;51.748;14.326;2022-09-09T09:11:54;25.90;52.00
51613;DHT22;37694;51.748;14.326;2022-09-09T09:14:24;25.90;52.10
51613;DHT22;37694;51.748;14.326;2022-09-09T09:17:06;26.00;52.60
51613;DHT22;37694;51.748;14.326;2022-09-09T09:19:34;25.90;51.60
51613;DHT22;37694;51.748;14.326;2022-09-09T09:22:17;26.00;51.50
51613;DHT22;37694;51.748;14.326;2022-09-09T09:24:53;26.00;51.40
51613;DHT22;37694;51.748;14.326;2022-09-09T09:27:43;26.00;51.30
51613;DHT22;37694;51.748;14.326;2022-09-09T09:33:06;26.00;51.20
51613;DHT22;37694;51.748;14.326;2022-09-09T09:35:34;26.00;51.10
51613;DHT22;37694;51.748;14.326;2022-09-09T09:37:59;26.00;51.20
51613;DHT22;37694;51.748;14.326;2022-09-09T09:40:26;26.10;51.40
51613;DHT22;37694;51.748;14.326;2022-09-09T09:48:04;26.10;50.90
51613;DHT22;37694;51.748;14.326;2022-09-09T09:50:32;26.10;50.90
51613;DHT22;37694;51.748;14.326;2022-09-09T09:53:00;26.10;50.80
51613;DHT22;37694;51.748;14.326;2022-09-09T09:55:28;26.20;50.90
51613;DHT22;37694;51.748;14.326;2022-09-09T09:58:04;26.20;50.80
51613;DHT22;37694;51.748;14.326;2022-09-09T10:00:30;26.20;50.70
51613;DHT22;37694;51.748;14.326;2022-09-09T10:02:59;26.20;50.70
51613;DHT22;37694;51.748;14.326;2022-09-09T10:05:27;26.20;50.60
51613;DHT22;37694;51.748;14.326;2022-09-09T10:08:14;26.20;50.50
51613;DHT22;37694;51.748;14.326;2022-09-09T10:14:11;26.30;50.50
51613;DHT22;37694;51.748;14.326;2022-09-09T10:19:38;26.30;50.50
51613;DHT22;37694;51.748;14.326;2022-09-09T10:22:26;26.30;50.40
51613;DHT22;37694;51.748;14.326;2022-09-09T10:30:12;26.40;50.30
51613;DHT22;37694;51.748;14.326;2022-09-09T10:38:17;26.40;50.10
51613;DHT22;37694;51.748;14.326;2022-09-09T10:51:27;26.30;50.30
51613;DHT22;37694;51.748;14.326;2022-09-09T10:56:43;26.40;50.20
51613;DHT22;37694;51.748;14.326;2022-09-09T10:59:16;26.30;50.20
51613;DHT22;37694;51.748;14.326;2022-09-09T11:01:51;26.40;50.20
51613;DHT22;37694;51.748;14.326;2022-09-09T11:04:32;26.30;50.20
51613;DHT22;37694;51.748;14.326;2022-09-09T11:07:01;26.40;50.20
51613;DHT22;37694;51.748;14.326;2022-09-09T11:09:35;26.30;50.20
51613;DHT22;37694;51.748;14.326;2022-09-09T11:12:02;26.30;50.20
51613;DHT22;37694;51.748;14.326;2022-09-09T11:17:49;26.40;50.20
51613;DHT22;37694;51.748;14.326;2022-09-09T11:20:15;26.30;50.20
51613;DHT22;37694;51.748;14.326;2022-09-09T11:23:18;26.30;50.20
51613;DHT22;37694;51.748;14.326;2022-09-09T11:25:59;26.40;50.10
51613;DHT22;37694;51.748;14.326;2022-09-09T11:32:16;26.40;50.10
51613;DHT22;37694;51.748;14.326;2022-09-09T11:40:28;26.40;50.00
51613;DHT22;37694;51.748;14.326;2022-09-09T11:43:10;26.40;49.90
51613;DHT22;37694;51.748;14.326;2022-09-09T11:45:39;26.40;49.90
51613;DHT22;37694;51.748;14.326;2022-09-09T11:48:05;26.40;49.80
51613;DHT22;37694;51.748;14.326;2022-09-09T11:53:33;26.50;49.80
51613;DHT22;37694;51.748;14.326;2022-09-09T11:56:12;26.50;49.90
51613;DHT22;37694;51.748;14.326;2022-09-09T11:58:44;26.50;49.70
51613;DHT22;37694;51.748;14.326;2022-09-09T12:01:42;26.50;49.70
51613;DHT22;37694;51.748;14.326;2022-09-09T12:04:21;26.50;49.60
51613;DHT22;37694;51.748;14.326;2022-09-09T12:07:21;26.50;49.70
51613;DHT22;37694;51.748;14.326;2022-09-09T12:09:49;26.50;49.60
51613;DHT22;37694;51.748;14.326;2022-09-09T12:17:24;26.60;49.50
51613;DHT22;37694;51.748;14.326;2022-09-09T12:20:13;26.60;49.50
51613;DHT22;37694;51.748;14.326;2022-09-09T12:25:57;26.60;49.40
51613;DHT22;37694;51.748;14.326;2022-09-09T12:33:48;26.70;49.40
51613;DHT22;37694;51.748;14.326;2022-09-09T12:36:28;26.60;49.30
51613;DHT22;37694;51.748;14.326;2022-09-09T12:38:57;26.70;49.30
51613;DHT22;37694;51.748;14.326;2022-09-09T12:41:26;26.70;49.30
51613;DHT22;37694;51.748;14.326;2022-09-09T12:44:04;26.70;49.30
51613;DHT22;37694;51.748;14.326;2022-09-09T12:46:42;26.70;49.30
51613;DHT22;37694;51.748;14.326;2022-09-09T12:52:06;26.80;49.30
51613;DHT22;37694;51.748;14.326;2022-09-09T12:54:35;26.70;49.30
51613;DHT22;37694;51.748;14.326;2022-09-09T12:57:02;26.70;49.40
51613;DHT22;37694;51.748;14.326;2022-09-09T12:59:37;26.70;49.70
51613;DHT22;37694;51.748;14.326;2022-09-09T13:04:43;26.70;47.90
51613;DHT22;37694;51.748;14.326;2022-09-09T13:07:11;26.60;48.00
51613;DHT22;37694;51.748;14.326;2022-09-09T13:09:37;26.60;47.50
51613;DHT22;37694;51.748;14.326;2022-09-09T13:12:04;26.50;46.30
51613;DHT22;37694;51.748;14.326;2022-09-09T13:14:34;26.40;45.70
51613;DHT22;37694;51.748;14.326;2022-09-09T13:17:04;26.40;45.50
51613;DHT22;37694;51.748;14.326;2022-09-09T13:19:35;26.30;45.70
51613;DHT22;37694;51.748;14.326;2022-09-09T13:22:16;26.30;45.60
51613;DHT22;37694;51.748;14.326;2022-09-09T13:24:44;26.30;45.80
51613;DHT22;37694;51.748;14.326;2022-09-09T13:29:56;26.20;45.90
51613;DHT22;37694;51.748;14.326;2022-09-09T13:32:23;26.20;46.30
51613;DHT22;37694;51.748;14.326;2022-09-09T13:35:22;26.20;46.40
51613;DHT22;37694;51.748;14.326;2022-09-09T13:37:48;26.10;46.50
51613;DHT22;37694;51.748;14.326;2022-09-09T13:40:21;26.10;46.40
51613;DHT22;37694;51.748;14.326;2022-09-09T13:42:50;26.10;47.00
51613;DHT22;37694;51.748;14.326;2022-09-09T13:45:22;26.00;45.90
51613;DHT22;37694;51.748;14.326;2022-09-09T13:47:49;26.00;46.00
51613;DHT22;37694;51.748;14.326;2022-09-09T13:50:30;26.00;46.50
51613;DHT22;37694;51.748;14.326;2022-09-09T13:52:59;26.10;46.80
51613;DHT22;37694;51.748;14.326;2022-09-09T13:55:26;26.00;47.10
51613;DHT22;37694;51.748;14.326;2022-09-09T13:57:57;26.10;47.60
51613;DHT22;37694;51.748;14.326;2022-09-09T14:00:23;26.10;48.10
51613;DHT22;37694;51.748;14.326;2022-09-09T14:02:50;26.10;48.40
51613;DHT22;37694;51.748;14.326;2022-09-09T14:05:17;26.20;48.80
51613;DHT22;37694;51.748;14.326;2022-09-09T14:07:43;26.20;49.10
51613;DHT22;37694;51.748;14.326;2022-09-09T14:10:10;26.20;49.30
51613;DHT22;37694;51.748;14.326;2022-09-09T14:12:36;26.20;49.70
51613;DHT22;37694;51.748;14.326;2022-09-09T14:15:04;26.30;49.90
51613;DHT22;37694;51.748;14.326;2022-09-09T14:17:30;26.20;50.00
51613;DHT22;37694;51.748;14.326;2022-09-09T14:19:57;26.20;49.90
51613;DHT22;37694;51.748;14.326;2022-09-09T14:22:23;26.30;50.00
51613;DHT22;37694;51.748;14.326;2022-09-09T14:24:49;26.30;50.00
51613;DHT22;37694;51.748;14.326;2022-09-09T14:27:16;26.30;50.30
51613;DHT22;37694;51.748;14.326;2022-09-09T14:29:42;26.30;50.30
51613;DHT22;37694;51.748;14.326;2022-09-09T14:32:10;26.30;50.60
51613;DHT22;37694;51.748;14.326;2022-09-09T14:34:35;26.40;50.80
51613;DHT22;37694;51.748;14.326;2022-09-09T14:37:01;26.40;51.50
51613;DHT22;37694;51.748;14.326;2022-09-09T14:39:27;26.40;51.70
51613;DHT22;37694;51.748;14.326;2022-09-09T14:41:52;26.40;51.60
51613;DHT22;37694;51.748;14.326;2022-09-09T14:44:18;26.40;51.50
51613;DHT22;37694;51.748;14.326;2022-09-09T14:46:44;26.40;52.10
51613;DHT22;37694;51.748;14.326;2022-09-09T14:49:09;26.50;52.10
51613;DHT22;37694;51.748;14.326;2022-09-09T14:51:38;26.50;52.10
51613;DHT22;37694;51.748;14.326;2022-09-09T14:54:04;26.50;52.00
51613;DHT22;37694;51.748;14.326;2022-09-09T14:56:31;26.50;52.10
51613;DHT22;37694;51.748;14.326;2022-09-09T14:59:00;26.50;52.10
51613;DHT22;37694;51.748;14.326;2022-09-09T15:01:29;26.50;52.70
51613;DHT22;37694;51.748;14.326;2022-09-09T15:04:00;26.50;52.70
51613;DHT22;37694;51.748;14.326;2022-09-09T15:06:28;26.50;52.70
51613;DHT22;37694;51.748;14.326;2022-09-09T15:08:58;26.50;52.70
51613;DHT22;37694;51.748;14.326;2022-09-09T15:11:27;26.50;52.60
51613;DHT22;37694;51.748;14.326;2022-09-09T15:13:53;26.50;52.80
51613;DHT22;37694;51.748;14.326;2022-09-09T15:16:22;26.50;52.90
51613;DHT22;37694;51.748;14.326;2022-09-09T15:18:51;26.60;53.10
51613;DHT22;37694;51.748;14.326;2022-09-09T15:21:19;26.60;53.70
51613;DHT22;37694;51.748;14.326;2022-09-09T15:23:45;26.50;53.10
51613;DHT22;37694;51.748;14.326;2022-09-09T15:26:11;26.60;53.60
51613;DHT22;37694;51.748;14.326;2022-09-09T15:28:40;26.50;53.20
51613;DHT22;37694;51.748;14.326;2022-09-09T15:33:33;26.60;52.90
51613;DHT22;37694;51.748;14.326;2022-09-09T15:35:59;26.60;52.70
51613;DHT22;37694;51.748;14.326;2022-09-09T15:38:24;26.50;52.80
51613;DHT22;37694;51.748;14.326;2022-09-09T15:40:56;26.50;50.90
51613;DHT22;37694;51.748;14.326;2022-09-09T15:43:23;26.50;49.00
51613;DHT22;37694;51.748;14.326;2022-09-09T15:45:56;26.40;48.50
51613;DHT22;37694;51.748;14.326;2022-09-09T15:48:31;26.30;48.00
51613;DHT22;37694;51.748;14.326;2022-09-09T15:51:03;26.20;47.40
51613;DHT22;37694;51.748;14.326;2022-09-09T15:53:30;26.10;46.80
51613;DHT22;37694;51.748;14.326;2022-09-09T15:55:58;26.10;46.80
51613;DHT22;37694;51.748;14.326;2022-09-09T15:58:24;26.00;47.50
51613;DHT22;37694;51.748;14.326;2022-09-09T16:00:49;26.00;47.40
51613;DHT22;37694;51.748;14.326;2022-09-09T16:03:15;26.10;47.40
51613;DHT22;37694;51.748;14.326;2022-09-09T16:05:40;26.00;47.30
51613;DHT22;37694;51.748;14.326;2022-09-09T16:08:06;26.00;47.30
51613;DHT22;37694;51.748;14.326;2022-09-09T16:10:32;25.90;47.10
51613;DHT22;37694;51.748;14.326;2022-09-09T16:12:58;25.90;47.20
51613;DHT22;37694;51.748;14.326;2022-09-09T16:15:24;25.80;47.40
51613;DHT22;37694;51.748;14.326;2022-09-09T16:17:53;25.90;47.50
51613;DHT22;37694;51.748;14.326;2022-09-09T16:20:19;26.00;48.00
51613;DHT22;37694;51.748;14.326;2022-09-09T16:22:44;26.00;47.60
51613;DHT22;37694;51.748;14.326;2022-09-09T16:25:10;26.00;48.40
51613;DHT22;37694;51.748;14.326;2022-09-09T16:27:36;26.10;48.40
51613;DHT22;37694;51.748;14.326;2022-09-09T16:30:01;26.10;48.70
51613;DHT22;37694;51.748;14.326;2022-09-09T16:32:27;26.10;48.80
51613;DHT22;37694;51.748;14.326;2022-09-09T16:34:53;26.10;48.80
51613;DHT22;37694;51.748;14.326;2022-09-09T16:37:19;26.10;49.30
51613;DHT22;37694;51.748;14.326;2022-09-09T16:39:44;26.10;49.30
51613;DHT22;37694;51.748;14.326;2022-09-09T16:42:10;26.10;49.60
51613;DHT22;37694;51.748;14.326;2022-09-09T16:44:35;26.20;49.50
51613;DHT22;37694;51.748;14.326;2022-09-09T16:47:01;26.20;49.40
51613;DHT22;37694;51.748;14.326;2022-09-09T16:49:27;26.20;49.60
51613;DHT22;37694;51.748;14.326;2022-09-09T16:51:53;26.20;49.90
51613;DHT22;37694;51.748;14.326;2022-09-09T16:54:19;26.20;50.20
51613;DHT22;37694;51.748;14.326;2022-09-09T16:56:47;26.20;50.30
51613;DHT22;37694;51.748;14.326;2022-09-09T16:59:17;26.30;50.20
51613;DHT22;37694;51.748;14.326;2022-09-09T17:01:45;26.20;50.00
51613;DHT22;37694;51.748;14.326;2022-09-09T17:04:13;26.30;50.00
51613;DHT22;37694;51.748;14.326;2022-09-09T17:06:40;26.30;50.20
51613;DHT22;37694;51.748;14.326;2022-09-09T17:09:10;26.30;50.00
51613;DHT22;37694;51.748;14.326;2022-09-09T17:11:38;26.30;50.70
51613;DHT22;37694;51.748;14.326;2022-09-09T17:14:06;26.20;50.50
51613;DHT22;37694;51.748;14.326;2022-09-09T17:16:33;26.20;51.00
51613;DHT22;37694;51.748;14.326;2022-09-09T17:19:02;26.30;51.00
51613;DHT22;37694;51.748;14.326;2022-09-09T17:21:29;26.20;50.20
51613;DHT22;37694;51.748;14.326;2022-09-09T17:23:57;26.30;50.60
51613;DHT22;37694;51.748;14.326;2022-09-09T17:26:28;26.20;50.40
51613;DHT22;37694;51.748;14.326;2022-09-09T17:28:56;26.20;50.40
51613;DHT22;37694;51.748;14.326;2022-09-09T17:31:24;26.20;50.10
51613;DHT22;37694;51.748;14.326;2022-09-09T17:33:51;26.10;50.00
51613;DHT22;37694;51.748;14.326;2022-09-09T17:36:26;26.10;50.20
51613;DHT22;37694;51.748;14.326;2022-09-09T17:38:53;26.10;50.30
51613;DHT22;37694;51.748;14.326;2022-09-09T17:41:24;26.10;50.60
51613;DHT22;37694;51.748;14.326;2022-09-09T17:43:50;26.10;50.00
51613;DHT22;37694;51.748;14.326;2022-09-09T17:46:21;26.10;50.20
51613;DHT22;37694;51.748;14.326;2022-09-09T17:48:49;26.10;50.30
51613;DHT22;37694;51.748;14.326;2022-09-09T17:51:18;26.20;50.30
51613;DHT22;37694;51.748;14.326;2022-09-09T17:53:47;26.20;50.60
51613;DHT22;37694;51.748;14.326;2022-09-09T17:56:14;26.30;50.70
51613;DHT22;37694;51.748;14.326;2022-09-09T17:58:40;26.30;50.80